Time;durP1;ratioP1;P1;durP2;ratioP2;P2;SDS_P1;SDS_P2;PMS_P1;PMS_P2;Temp;Humidity;BMP_temperature;BMP_pressure;BME280_temperature;BME280_humidity;BME280_pressure;Samples;Min_cycle;Max_cycle;Signal;HPM_P1;HPM_P2
2023/06/20 00:01:20;;;;;;;21.33;13.60;;;15.80;99.90;;;;;;5061677;28;20122;-57
2023/06/20 00:03:46;;;;;;;15.98;11.90;;;15.70;99.90;;;;;;5057534;28;20550;-58
2023/06/20 00:06:12;;;;;;;21.27;13.90;;;16.00;99.90;;;;;;5061369;28;20643;-58
2023/06/20 00:08:38;;;;;;;18.63;14.40;;;15.80;99.90;;;;;;5061864;28;20032;-57
2023/06/20 00:11:04;;;;;;;25.13;16.33;;;15.90;99.90;;;;;;5058298;28;20078;-58
2023/06/20 00:13:29;;;;;;;23.83;16.50;;;16.00;99.90;;;;;;5058998;28;20047;-58
2023/06/20 00:15:58;;;;;;;23.23;16.33;;;15.70;99.90;;;;;;5058898;28;20044;-57
2023/06/20 00:18:27;;;;;;;21.48;16.23;;;16.00;99.90;;;;;;5055894;28;20048;-57
2023/06/20 00:20:55;;;;;;;23.95;16.90;;;15.90;99.90;;;;;;5059665;28;20136;-57
2023/06/20 00:23:21;;;;;;;30.52;19.73;;;16.00;99.90;;;;;;5060855;28;20355;-57
2023/06/20 00:25:48;;;;;;;24.35;17.33;;;17.40;99.90;;;;;;5062722;28;20676;-58
2023/06/20 00:28:17;;;;;;;26.55;18.52;;;16.40;99.90;;;;;;5060177;28;20040;-58
2023/06/20 00:30:43;;;;;;;24.27;18.55;;;16.30;99.90;;;;;;5058006;28;20490;-58
2023/06/20 00:33:09;;;;;;;26.35;18.27;;;16.30;99.90;;;;;;5057046;28;20067;-58
2023/06/20 00:35:35;;;;;;;24.30;17.48;;;16.20;99.90;;;;;;5058147;28;20752;-57
2023/06/20 00:38:03;;;;;;;24.85;18.60;;;16.20;99.90;;;;;;5056471;28;20105;-57
2023/06/20 00:40:29;;;;;;;25.42;18.52;;;16.20;99.90;;;;;;5059113;28;20052;-58
2023/06/20 00:42:55;;;;;;;23.50;18.55;;;16.10;99.90;;;;;;5058055;28;20116;-58
2023/06/20 00:45:32;;;;;;;25.83;17.85;;;16.10;99.90;;;;;;5057976;28;20294;-57
2023/06/20 00:47:59;;;;;;;20.27;16.55;;;16.20;99.90;;;;;;5057353;28;20044;-57
2023/06/20 00:50:27;;;;;;;27.40;17.27;;;16.20;99.90;;;;;;5059680;28;20056;-57
2023/06/20 00:52:58;;;;;;;26.63;18.65;;;16.40;99.90;;;;;;5059768;28;20139;-57
2023/06/20 00:55:26;;;;;;;24.48;16.77;;;16.10;99.90;;;;;;5059568;28;20129;-57
2023/06/20 00:57:55;;;;;;;28.58;18.92;;;16.30;99.90;;;;;;5057532;28;20163;-58
2023/06/20 01:00:21;;;;;;;24.63;18.25;;;16.10;99.90;;;;;;5057581;28;20047;-57
2023/06/20 01:02:47;;;;;;;22.77;17.73;;;15.90;99.90;;;;;;5058840;28;20589;-57
2023/06/20 01:05:16;;;;;;;25.83;18.63;;;16.10;99.90;;;;;;5058076;28;20358;-59
2023/06/20 01:08:01;;;;;;;25.52;18.80;;;16.20;99.90;;;;;;5058206;28;20043;-57
2023/06/20 01:10:45;;;;;;;27.80;18.00;;;16.30;99.90;;;;;;5057725;28;20063;-57
2023/06/20 01:13:33;;;;;;;25.33;18.85;;;16.10;99.90;;;;;;5062035;28;20093;-57
2023/06/20 01:16:26;;;;;;;25.67;17.95;;;16.20;99.90;;;;;;5058838;28;20073;-58
2023/06/20 01:19:19;;;;;;;23.50;18.48;;;16.20;99.90;;;;;;5056805;28;20075;-60
2023/06/20 01:21:55;;;;;;;22.90;18.08;;;16.10;99.90;;;;;;5055613;28;20147;-57
2023/06/20 01:24:33;;;;;;;23.50;18.45;;;16.10;99.90;;;;;;5054695;28;20464;-57
2023/06/20 01:27:16;;;;;;;25.98;18.10;;;16.30;99.90;;;;;;5058437;28;20405;-57
2023/06/20 01:29:52;;;;;;;27.90;19.27;;;16.20;99.90;;;;;;5056410;28;20039;-57
2023/06/20 01:32:21;;;;;;;24.27;17.73;;;16.30;99.90;;;;;;5055808;28;20528;-56
2023/06/20 01:34:56;;;;;;;25.30;18.15;;;16.30;99.90;;;;;;5059587;28;20752;-57
2023/06/20 01:37:23;;;;;;;27.83;18.58;;;16.40;99.90;;;;;;5055490;28;20056;-57
2023/06/20 01:39:56;;;;;;;21.70;17.10;;;16.30;99.90;;;;;;5056755;28;20037;-57
2023/06/20 01:42:25;;;;;;;25.10;17.67;;;16.40;99.90;;;;;;5057099;28;20440;-57
2023/06/20 01:44:58;;;;;;;20.70;16.10;;;16.20;99.90;;;;;;5058073;28;20567;-58
2023/06/20 01:47:25;;;;;;;22.83;16.58;;;16.30;99.90;;;;;;5057898;28;20538;-57
2023/06/20 01:49:52;;;;;;;20.45;16.52;;;16.40;99.90;;;;;;5059722;28;20169;-57
2023/06/20 01:52:20;;;;;;;22.70;15.35;;;16.50;99.90;;;;;;5057910;28;20071;-57
2023/06/20 01:54:49;;;;;;;23.77;16.30;;;16.30;99.90;;;;;;5058819;28;20032;-57
2023/06/20 01:57:16;;;;;;;22.30;15.48;;;16.30;99.90;;;;;;5054036;28;20040;-57
2023/06/20 01:59:43;;;;;;;24.35;15.02;;;16.50;99.90;;;;;;5057870;28;20044;-57
2023/06/20 02:02:10;;;;;;;20.70;14.48;;;16.40;99.90;;;;;;5059651;28;20052;-57
2023/06/20 02:04:36;;;;;;;22.38;15.30;;;16.50;99.90;;;;;;5057280;28;20201;-57
2023/06/20 02:07:03;;;;;;;23.33;14.73;;;16.30;99.90;;;;;;5057288;28;20094;-57
2023/06/20 02:09:30;;;;;;;19.98;13.95;;;16.40;99.90;;;;;;5057727;28;20453;-58
2023/06/20 02:11:57;;;;;;;19.02;14.57;;;16.40;99.90;;;;;;5058154;28;20048;-57
2023/06/20 02:14:25;;;;;;;20.50;13.55;;;16.30;99.90;;;;;;5057202;28;20044;-57
2023/06/20 02:16:52;;;;;;;18.65;14.52;;;16.60;99.90;;;;;;5059104;28;20440;-58
2023/06/20 02:19:18;;;;;;;17.80;14.15;;;16.40;99.90;;;;;;5058114;28;20919;-57
2023/06/20 02:21:46;;;;;;;18.88;13.57;;;16.40;99.90;;;;;;5058200;28;20521;-57
2023/06/20 02:24:18;;;;;;;19.73;13.77;;;16.50;99.90;;;;;;5061599;28;20059;-57
2023/06/20 02:26:45;;;;;;;23.23;13.85;;;16.50;99.90;;;;;;5060345;28;20097;-57
2023/06/20 02:29:12;;;;;;;21.48;14.18;;;16.40;99.90;;;;;;5075779;28;20076;-57
2023/06/20 02:31:50;;;;;;;20.30;12.88;;;16.50;99.90;;;;;;5056771;28;20310;-57
2023/06/20 02:34:20;;;;;;;18.40;12.38;;;16.40;99.90;;;;;;5055644;28;20036;-57
2023/06/20 02:36:47;;;;;;;16.75;11.93;;;16.60;99.90;;;;;;5057687;28;20040;-57
2023/06/20 02:39:13;;;;;;;18.73;12.60;;;16.30;99.90;;;;;;5091151;27;20055;-57
2023/06/20 02:41:42;;;;;;;21.40;13.10;;;16.40;99.90;;;;;;5058133;28;20032;-57
2023/06/20 02:44:08;;;;;;;21.33;13.23;;;16.50;99.90;;;;;;5062815;28;20060;-57
2023/06/20 02:46:46;;;;;;;17.88;12.43;;;17.70;99.90;;;;;;5054721;28;20110;-57
2023/06/20 02:49:30;;;;;;;17.75;11.90;;;16.60;99.90;;;;;;5055698;28;20044;-57
2023/06/20 02:52:10;;;;;;;17.60;12.23;;;16.40;99.90;;;;;;5058163;28;20097;-57
2023/06/20 02:54:46;;;;;;;16.85;11.70;;;16.40;99.90;;;;;;5090241;27;20346;-58
2023/06/20 02:57:17;;;;;;;17.13;11.68;;;16.50;99.90;;;;;;5056143;28;20135;-57
2023/06/20 02:59:47;;;;;;;16.15;11.25;;;16.60;99.90;;;;;;5059430;28;20043;-57
2023/06/20 03:02:17;;;;;;;17.33;11.63;;;16.40;99.90;;;;;;5061129;28;20466;-57
2023/06/20 03:04:46;;;;;;;19.77;12.23;;;16.30;99.90;;;;;;5056284;28;20049;-57
2023/06/20 03:07:13;;;;;;;18.05;12.20;;;16.60;99.90;;;;;;5054880;28;20076;-57
2023/06/20 03:09:40;;;;;;;13.40;11.52;;;16.70;99.90;;;;;;5055613;28;20501;-57
2023/06/20 03:12:07;;;;;;;13.05;10.75;;;16.40;99.90;;;;;;5059213;28;20567;-58
2023/06/20 03:14:33;;;;;;;15.98;11.70;;;16.40;99.90;;;;;;5059349;28;20125;-57
2023/06/20 03:16:59;;;;;;;16.50;10.98;;;16.70;99.90;;;;;;5056762;28;20086;-57
2023/06/20 03:19:25;;;;;;;13.32;11.05;;;16.40;99.90;;;;;;5055357;28;20639;-57
2023/06/20 03:21:51;;;;;;;19.10;11.80;;;16.70;99.90;;;;;;5058812;28;20065;-57
2023/06/20 03:24:17;;;;;;;15.35;10.98;;;16.40;99.90;;;;;;5060138;28;20043;-57
2023/06/20 03:26:42;;;;;;;15.77;11.63;;;16.60;99.90;;;;;;5055486;28;20086;-57
2023/06/20 03:29:08;;;;;;;15.25;11.30;;;16.60;99.90;;;;;;5059183;28;20040;-58
2023/06/20 03:31:34;;;;;;;17.15;10.82;;;16.70;99.90;;;;;;5054971;28;20090;-57
2023/06/20 03:34:00;;;;;;;16.85;11.23;;;16.70;99.90;;;;;;5053600;28;20028;-57
2023/06/20 03:36:25;;;;;;;16.77;11.32;;;16.60;99.90;;;;;;5058030;28;20048;-57
2023/06/20 03:38:51;;;;;;;18.27;12.65;;;16.60;99.90;;;;;;5060294;28;20067;-58
2023/06/20 03:41:17;;;;;;;13.35;11.20;;;16.70;99.90;;;;;;5055716;28;20044;-56
2023/06/20 03:43:43;;;;;;;14.90;11.13;;;16.70;99.90;;;;;;5057161;28;20066;-56
2023/06/20 03:46:08;;;;;;;16.88;11.02;;;16.60;99.90;;;;;;5056110;28;20040;-57
2023/06/20 03:48:34;;;;;;;14.48;10.88;;;16.60;99.90;;;;;;5057307;28;20143;-58
2023/06/20 03:51:00;;;;;;;15.45;10.32;;;16.80;99.90;;;;;;5055888;28;20056;-58
2023/06/20 03:53:25;;;;;;;14.00;11.40;;;16.80;99.90;;;;;;5055338;28;20033;-58
2023/06/20 03:55:51;;;;;;;12.30;10.35;;;16.70;99.90;;;;;;5054501;28;20187;-57
2023/06/20 03:58:17;;;;;;;13.10;9.95;;;16.70;99.90;;;;;;5059635;28;20044;-58
2023/06/20 04:00:43;;;;;;;12.10;10.68;;;16.60;99.90;;;;;;5056983;28;20052;-58
2023/06/20 04:03:09;;;;;;;16.15;10.70;;;16.90;99.90;;;;;;5056654;28;20071;-58
2023/06/20 04:05:34;;;;;;;17.40;10.90;;;16.90;99.90;;;;;;5055456;28;20047;-58
2023/06/20 04:08:01;;;;;;;15.75;10.93;;;16.80;99.90;;;;;;5060776;28;20040;-58
2023/06/20 04:10:27;;;;;;;14.95;11.38;;;17.00;99.90;;;;;;5060034;28;20494;-58
2023/06/20 04:12:53;;;;;;;12.95;11.25;;;16.90;99.90;;;;;;5063786;28;20052;-57
2023/06/20 04:15:18;;;;;;;15.68;11.10;;;16.80;99.90;;;;;;5059922;28;20118;-57
2023/06/20 04:17:45;;;;;;;18.20;11.77;;;17.00;99.90;;;;;;5058434;28;20105;-58
2023/06/20 04:20:12;;;;;;;18.27;10.68;;;16.80;99.90;;;;;;5059031;28;20109;-58
2023/06/20 04:22:44;;;;;;;14.48;10.18;;;16.90;99.90;;;;;;5055965;28;20044;-58
2023/06/20 04:25:14;;;;;;;14.75;11.30;;;16.70;99.90;;;;;;5057946;28;20044;-58
2023/06/20 04:27:40;;;;;;;12.65;9.73;;;16.90;99.90;;;;;;5058481;28;20119;-57
2023/06/20 04:30:07;;;;;;;13.85;10.43;;;17.00;99.90;;;;;;5057218;28;20037;-58
2023/06/20 04:32:33;;;;;;;14.38;10.38;;;16.90;99.90;;;;;;5056913;28;20044;-58
2023/06/20 04:34:59;;;;;;;13.15;9.90;;;17.00;99.90;;;;;;5059691;28;20150;-60
2023/06/20 04:37:25;;;;;;;13.65;9.88;;;17.00;99.90;;;;;;5057282;28;20591;-60
2023/06/20 04:39:50;;;;;;;15.68;10.05;;;17.10;99.90;;;;;;5057411;28;20044;-60
2023/06/20 04:42:16;;;;;;;17.13;10.80;;;17.10;99.90;;;;;;5057908;28;20136;-60
2023/06/20 04:44:45;;;;;;;14.23;9.55;;;16.90;99.90;;;;;;5061393;28;20806;-60
2023/06/20 04:47:14;;;;;;;12.98;8.77;;;17.10;99.90;;;;;;5057273;28;20575;-60
2023/06/20 04:49:40;;;;;;;16.02;9.10;;;17.10;99.90;;;;;;5057384;28;20172;-60
2023/06/20 04:52:08;;;;;;;12.45;8.30;;;17.20;99.90;;;;;;5057841;28;20056;-60
2023/06/20 04:54:34;;;;;;;13.93;9.18;;;17.00;99.90;;;;;;5058618;28;20040;-59
2023/06/20 04:57:02;;;;;;;12.65;8.38;;;17.20;99.90;;;;;;5057905;28;20665;-60
2023/06/20 04:59:28;;;;;;;13.35;9.13;;;17.30;99.90;;;;;;5059216;28;20512;-60
2023/06/20 05:01:55;;;;;;;14.88;8.80;;;17.10;99.90;;;;;;5057997;28;20043;-63
2023/06/20 05:04:21;;;;;;;10.40;8.02;;;17.50;99.90;;;;;;5057796;28;20071;-59
2023/06/20 05:06:47;;;;;;;12.40;8.35;;;17.30;99.90;;;;;;5056204;28;20478;-60
2023/06/20 05:09:13;;;;;;;11.60;7.95;;;17.30;99.90;;;;;;5056490;28;20051;-60
2023/06/20 05:11:39;;;;;;;11.50;8.13;;;17.20;99.90;;;;;;5060276;28;20161;-59
2023/06/20 05:14:05;;;;;;;15.35;8.40;;;17.40;99.90;;;;;;5061001;28;20454;-60
2023/06/20 05:16:31;;;;;;;10.07;7.65;;;17.60;99.90;;;;;;5058929;28;20049;-60
2023/06/20 05:18:56;;;;;;;13.18;8.48;;;17.50;99.90;;;;;;5057538;28;20382;-60
2023/06/20 05:21:22;;;;;;;12.52;8.25;;;17.50;99.90;;;;;;5059620;28;20458;-60
2023/06/20 05:23:48;;;;;;;11.13;8.00;;;17.40;99.90;;;;;;5060130;28;20048;-59
2023/06/20 05:26:14;;;;;;;14.40;8.57;;;17.60;99.90;;;;;;5057793;28;20487;-59
2023/06/20 05:28:39;;;;;;;10.98;7.78;;;17.80;99.90;;;;;;5058046;28;20044;-58
2023/06/20 05:31:05;;;;;;;11.00;8.40;;;17.70;99.90;;;;;;5055726;28;20060;-59
2023/06/20 05:33:31;;;;;;;12.07;7.57;;;17.90;99.90;;;;;;5055954;28;20836;-58
2023/06/20 05:36:00;;;;;;;10.93;8.32;;;17.80;99.90;;;;;;5056311;28;20111;-58
2023/06/20 05:38:25;;;;;;;10.77;8.18;;;18.00;99.90;;;;;;5054343;28;20040;-59
2023/06/20 05:40:54;;;;;;;11.75;8.27;;;18.00;99.90;;;;;;5055820;28;20044;-58
2023/06/20 05:43:20;;;;;;;12.73;8.68;;;18.00;99.90;;;;;;5057170;28;20045;-59
2023/06/20 05:45:45;;;;;;;10.55;8.32;;;18.10;99.90;;;;;;5059479;28;20616;-59
2023/06/20 05:48:11;;;;;;;10.95;8.43;;;17.90;99.90;;;;;;5088220;27;20468;-58
2023/06/20 05:50:37;;;;;;;13.00;7.80;;;18.00;99.90;;;;;;5056324;28;20062;-57
2023/06/20 05:53:03;;;;;;;11.70;8.00;;;18.00;99.90;;;;;;5056485;28;20041;-58
2023/06/20 05:55:29;;;;;;;12.35;7.90;;;16.90;99.90;;;;;;5057764;28;20078;-59
2023/06/20 05:57:54;;;;;;;11.77;7.55;;;18.00;99.90;;;;;;5056500;28;20064;-59
2023/06/20 06:00:21;;;;;;;13.05;7.88;;;18.20;99.90;;;;;;5056483;28;20052;-59
2023/06/20 06:02:47;;;;;;;10.93;7.95;;;17.90;99.90;;;;;;5057198;28;20141;-58
2023/06/20 06:05:13;;;;;;;13.70;8.65;;;18.10;99.90;;;;;;5055850;28;20132;-58
2023/06/20 06:07:39;;;;;;;13.18;8.18;;;18.00;99.90;;;;;;5060473;28;20543;-58
2023/06/20 06:10:07;;;;;;;13.93;9.35;;;18.30;99.90;;;;;;5090799;27;20055;-59
2023/06/20 06:12:37;;;;;;;12.55;8.70;;;18.30;99.90;;;;;;5060209;28;20107;-58
2023/06/20 06:15:04;;;;;;;12.50;9.18;;;18.20;99.90;;;;;;5060250;28;20048;-59
2023/06/20 06:17:30;;;;;;;14.38;8.95;;;18.20;99.90;;;;;;5058427;28;20063;-58
2023/06/20 06:19:57;;;;;;;13.52;8.88;;;18.40;99.90;;;;;;5058012;28;20450;-59
2023/06/20 06:22:23;;;;;;;14.75;9.75;;;18.40;99.90;;;;;;5057492;28;20032;-59
2023/06/20 06:24:49;;;;;;;13.70;9.75;;;18.50;99.90;;;;;;5059718;28;20440;-58
2023/06/20 06:27:17;;;;;;;17.55;9.68;;;18.60;99.90;;;;;;5057804;28;20047;-59
2023/06/20 06:29:43;;;;;;;15.02;9.63;;;19.50;99.90;;;;;;5057150;28;20151;-59
2023/06/20 06:32:10;;;;;;;13.82;9.73;;;18.60;99.90;;;;;;5057030;28;20051;-59
2023/06/20 06:34:36;;;;;;;13.40;10.35;;;18.90;99.90;;;;;;5055946;28;20584;-59
2023/06/20 06:37:03;;;;;;;14.60;9.77;;;19.00;99.90;;;;;;5057901;28;20393;-59
2023/06/20 06:39:29;;;;;;;13.27;9.55;;;18.90;99.90;;;;;;5056123;28;20177;-59
2023/06/20 06:41:55;;;;;;;14.00;9.30;;;19.20;99.90;;;;;;5059450;28;20124;-59
2023/06/20 06:44:21;;;;;;;12.85;9.50;;;19.50;99.90;;;;;;5061122;28;22085;-59
2023/06/20 06:46:47;;;;;;;14.35;9.43;;;19.80;99.90;;;;;;5058114;28;20089;-58
2023/06/20 06:49:13;;;;;;;11.60;9.77;;;19.80;99.90;;;;;;5056201;28;20424;-59
2023/06/20 06:51:39;;;;;;;16.10;10.32;;;20.10;99.90;;;;;;5056784;28;20135;-59
2023/06/20 06:54:05;;;;;;;13.68;10.68;;;20.10;99.90;;;;;;5056891;28;20097;-59
2023/06/20 06:56:31;;;;;;;15.63;9.57;;;20.20;99.90;;;;;;5056688;28;20052;-59
2023/06/20 06:59:00;;;;;;;14.13;9.45;;;20.30;99.90;;;;;;5057668;28;20476;-58
2023/06/20 07:01:28;;;;;;;13.10;10.07;;;20.40;99.90;;;;;;5088517;28;20056;-59
2023/06/20 07:03:54;;;;;;;15.00;10.82;;;20.40;99.90;;;;;;5055982;28;20090;-59
2023/06/20 07:06:20;;;;;;;15.25;10.98;;;20.30;99.90;;;;;;5056288;28;20051;-58
2023/06/20 07:08:46;;;;;;;15.07;10.65;;;20.30;99.90;;;;;;5055680;28;20493;-59
2023/06/20 07:11:12;;;;;;;14.10;10.77;;;20.40;99.90;;;;;;5058402;28;20040;-58
2023/06/20 07:13:38;;;;;;;14.77;10.85;;;20.30;99.90;;;;;;5055422;28;20379;-59
2023/06/20 07:16:04;;;;;;;13.77;10.18;;;20.50;99.90;;;;;;5058062;28;20123;-59
2023/06/20 07:18:30;;;;;;;13.57;10.63;;;20.50;99.90;;;;;;5055985;28;20037;-59
2023/06/20 07:20:59;;;;;;;13.70;10.25;;;20.30;99.90;;;;;;5057538;28;20419;-59
2023/06/20 07:23:25;;;;;;;14.07;10.95;;;20.20;99.90;;;;;;5058271;28;20127;-59
2023/06/20 07:25:51;;;;;;;16.75;10.60;;;20.40;99.90;;;;;;5056728;28;20074;-61
2023/06/20 07:28:17;;;;;;;21.27;10.80;;;20.30;99.90;;;;;;5054566;28;20033;-59
2023/06/20 07:30:43;;;;;;;14.68;10.07;;;20.10;99.90;;;;;;5055431;28;20037;-58
2023/06/20 07:33:08;;;;;;;17.25;12.02;;;20.40;99.90;;;;;;5057471;28;20052;-58
2023/06/20 07:35:34;;;;;;;15.07;10.65;;;20.50;99.90;;;;;;5060200;28;20039;-58
2023/06/20 07:38:00;;;;;;;17.13;10.68;;;20.40;99.90;;;;;;5057750;28;20045;-58
2023/06/20 07:40:25;;;;;;;12.20;10.40;;;20.60;99.90;;;;;;5057808;28;20397;-58
2023/06/20 07:42:51;;;;;;;15.30;10.45;;;20.60;99.90;;;;;;5059217;28;20051;-58
2023/06/20 07:45:17;;;;;;;14.73;10.23;;;20.60;99.90;;;;;;5062271;28;20076;-58
2023/06/20 07:47:43;;;;;;;14.43;10.10;;;20.30;99.90;;;;;;5060883;28;20048;-59
2023/06/20 07:50:09;;;;;;;14.85;10.70;;;20.60;99.90;;;;;;5065064;28;20040;-58
2023/06/20 07:52:35;;;;;;;13.43;9.57;;;20.70;99.90;;;;;;5060526;28;20048;-58
2023/06/20 07:55:03;;;;;;;14.20;10.35;;;20.60;99.90;;;;;;5062477;28;20123;-58
2023/06/20 07:57:28;;;;;;;13.18;9.38;;;20.70;99.90;;;;;;5062005;28;20580;-58
2023/06/20 07:59:54;;;;;;;13.43;10.13;;;20.80;99.90;;;;;;5066465;28;20349;-58
2023/06/20 08:02:21;;;;;;;14.70;9.85;;;20.90;99.90;;;;;;5060730;28;20127;-59
2023/06/20 08:04:48;;;;;;;14.95;9.77;;;20.90;99.90;;;;;;5061048;28;20032;-58
2023/06/20 08:07:13;;;;;;;12.70;10.35;;;21.00;99.90;;;;;;5062170;28;20052;-58
2023/06/20 08:09:39;;;;;;;11.20;8.95;;;20.00;99.90;;;;;;5062050;28;20036;-57
2023/06/20 08:12:05;;;;;;;12.50;9.40;;;23.20;99.90;;;;;;5062282;28;20043;-58
2023/06/20 08:14:31;;;;;;;11.73;10.52;;;21.50;99.90;;;;;;5061247;28;20098;-59
2023/06/20 08:16:57;;;;;;;14.68;9.85;;;21.40;99.90;;;;;;5059608;28;20040;-58
2023/06/20 08:19:22;;;;;;;12.77;9.68;;;21.40;99.90;;;;;;5060638;28;20701;-59
2023/06/20 08:21:48;;;;;;;11.88;9.73;;;21.40;99.90;;;;;;5061682;28;20097;-58
2023/06/20 08:24:14;;;;;;;11.95;8.38;;;21.50;99.90;;;;;;5059287;28;20072;-59
2023/06/20 08:26:39;;;;;;;10.93;9.13;;;21.60;99.90;;;;;;5062583;28;20043;-59
2023/06/20 08:29:08;;;;;;;11.02;9.00;;;21.70;99.90;;;;;;5057993;28;20517;-59
2023/06/20 08:31:36;;;;;;;12.90;9.52;;;21.90;99.90;;;;;;5058630;28;20052;-59
2023/06/20 08:34:05;;;;;;;12.02;8.88;;;21.90;99.90;;;;;;5060621;28;20137;-59
2023/06/20 08:36:34;;;;;;;13.90;9.13;;;22.30;99.90;;;;;;5056515;28;20037;-58
2023/06/20 08:39:01;;;;;;;12.77;8.93;;;22.40;99.90;;;;;;5057788;28;20523;-58
2023/06/20 08:41:27;;;;;;;10.30;8.95;;;22.50;99.90;;;;;;5058114;28;20417;-59
2023/06/20 08:43:53;;;;;;;12.85;8.75;;;22.50;99.90;;;;;;5057781;28;20036;-58
2023/06/20 08:46:19;;;;;;;13.35;8.93;;;22.30;99.90;;;;;;5058514;28;20643;-58
2023/06/20 08:48:46;;;;;;;10.88;9.48;;;22.30;99.90;;;;;;5058991;28;20169;-59
2023/06/20 08:51:15;;;;;;;10.30;9.05;;;22.40;99.90;;;;;;5058066;28;20047;-58
2023/06/20 08:53:45;;;;;;;12.00;8.43;;;22.40;99.90;;;;;;5059546;28;20044;-58
2023/06/20 08:56:11;;;;;;;13.02;8.52;;;22.10;99.90;;;;;;5058905;28;20044;-58
2023/06/20 08:58:37;;;;;;;10.52;7.65;;;22.00;99.90;;;;;;5057260;28;20042;-58
2023/06/20 09:01:07;;;;;;;11.20;8.43;;;22.30;99.90;;;;;;5060078;28;20056;-58
2023/06/20 09:03:33;;;;;;;12.55;8.05;;;22.30;99.90;;;;;;5058431;28;20546;-58
2023/06/20 09:05:58;;;;;;;20.48;8.75;;;22.30;99.90;;;;;;5057927;28;20048;-58
2023/06/20 09:08:37;;;;;;;48.67;10.02;;;22.40;99.90;;;;;;5058440;28;20974;-58
2023/06/20 09:11:11;;;;;;;25.27;9.25;;;22.60;99.90;;;;;;5058427;28;20040;-58
2023/06/20 09:13:37;;;;;;;33.72;9.07;;;22.60;99.90;;;;;;5058407;28;20044;-58
2023/06/20 09:16:11;;;;;;;10.45;7.68;;;22.70;99.90;;;;;;5060613;28;20666;-58
2023/06/20 09:18:40;;;;;;;12.77;8.07;;;22.80;99.90;;;;;;5057625;28;20037;-57
2023/06/20 09:21:06;;;;;;;11.77;8.63;;;22.80;99.90;;;;;;5058521;28;20528;-58
2023/06/20 09:23:33;;;;;;;12.48;7.63;;;22.60;99.90;;;;;;5058979;28;20048;-57
2023/06/20 09:26:18;;;;;;;10.27;8.20;;;22.90;99.90;;;;;;5059211;28;20112;-58
2023/06/20 09:28:44;;;;;;;13.85;7.82;;;22.90;99.90;;;;;;5070554;28;20580;-58
2023/06/20 09:31:10;;;;;;;14.13;8.07;;;22.80;99.90;;;;;;5057397;28;20060;-58
2023/06/20 09:33:37;;;;;;;13.40;8.30;;;22.70;99.90;;;;;;5056640;28;20064;-58
2023/06/20 09:36:16;;;;;;;9.20;7.82;;;22.70;99.90;;;;;;5056928;28;20036;-59
2023/06/20 09:38:43;;;;;;;11.57;7.25;;;22.70;99.90;;;;;;5056020;28;20048;-58
2023/06/20 09:41:13;;;;;;;12.90;7.38;;;23.10;99.90;;;;;;5056033;28;20165;-58
2023/06/20 09:43:39;;;;;;;8.48;7.13;;;23.10;99.90;;;;;;5056598;28;20608;-58
2023/06/20 09:46:05;;;;;;;11.35;7.20;;;23.30;99.90;;;;;;5058028;28;20919;-58
2023/06/20 09:48:32;;;;;;;9.48;6.65;;;23.70;99.90;;;;;;5056100;28;20129;-58
2023/06/20 09:51:01;;;;;;;9.50;7.05;;;23.90;99.90;;;;;;5057940;28;20115;-58
2023/06/20 09:53:37;;;;;;;12.65;6.90;;;24.30;99.90;;;;;;5090309;27;20044;-57
2023/06/20 09:56:03;;;;;;;8.25;6.53;;;24.50;99.90;;;;;;5056802;28;20550;-58
2023/06/20 09:58:30;;;;;;;10.50;6.68;;;24.80;99.90;;;;;;5055965;28;20052;-58
2023/06/20 10:00:58;;;;;;;9.23;6.43;;;25.30;99.90;;;;;;5056780;28;20072;-57
2023/06/20 10:03:25;;;;;;;9.48;6.00;;;25.10;99.90;;;;;;5055859;28;20098;-59
2023/06/20 10:05:52;;;;;;;7.10;5.80;;;25.70;99.90;;;;;;5058582;28;20049;-57
2023/06/20 10:08:18;;;;;;;10.52;5.55;;;25.70;99.90;;;;;;5058099;28;20071;-58
2023/06/20 10:10:44;;;;;;;8.32;4.68;;;25.70;99.90;;;;;;5057896;28;20075;-59
2023/06/20 10:13:11;;;;;;;7.45;5.07;;;25.90;99.90;;;;;;5054625;28;20459;-57
2023/06/20 10:15:37;;;;;;;9.55;5.25;;;26.20;99.90;;;;;;5056927;28;20151;-59
2023/06/20 10:18:05;;;;;;;8.30;4.88;;;26.20;99.90;;;;;;5058248;28;20051;-59
2023/06/20 10:20:37;;;;;;;10.25;5.03;;;26.30;99.90;;;;;;5058423;28;20757;-58
2023/06/20 10:23:07;;;;;;;6.78;4.70;;;26.50;99.90;;;;;;5058404;28;20131;-58
2023/06/20 10:25:34;;;;;;;7.30;5.10;;;26.60;99.90;;;;;;5059608;28;20059;-59
2023/06/20 10:28:03;;;;;;;7.70;4.63;;;26.70;99.90;;;;;;5057857;28;20290;-58
2023/06/20 10:30:50;;;;;;;7.10;5.03;;;27.00;99.90;;;;;;5059338;28;20595;-59
2023/06/20 10:33:26;;;;;;;9.25;4.78;;;27.20;99.90;;;;;;5058492;28;20040;-58
2023/06/20 10:35:57;;;;;;;7.15;4.65;;;27.10;99.90;;;;;;5060376;28;20051;-58
2023/06/20 10:38:27;;;;;;;8.27;4.22;;;27.10;99.90;;;;;;5060173;28;20613;-58
2023/06/20 10:41:20;;;;;;;7.05;4.35;;;27.20;99.90;;;;;;5057452;28;20040;-59
2023/06/20 10:43:51;;;;;;;9.23;4.88;;;27.10;99.90;;;;;;5055826;28;20036;-59
2023/06/20 10:46:20;;;;;;;7.90;4.80;;;27.20;99.90;;;;;;5058928;28;20049;-60
2023/06/20 10:48:45;;;;;;;9.52;4.70;;;27.20;99.90;;;;;;5057744;28;20070;-58
2023/06/20 10:51:11;;;;;;;8.52;5.25;;;27.40;99.90;;;;;;5057399;28;20052;-59
2023/06/20 10:53:37;;;;;;;7.22;5.30;;;27.50;99.90;;;;;;5058664;28;20050;-58
2023/06/20 10:56:03;;;;;;;7.35;5.05;;;27.40;99.90;;;;;;5056070;28;20315;-59
2023/06/20 10:58:29;;;;;;;6.63;4.72;;;27.50;99.90;;;;;;5057528;28;20044;-59
2023/06/20 11:00:55;;;;;;;9.32;4.88;;;27.50;99.90;;;;;;5055447;28;20544;-59
2023/06/20 11:03:22;;;;;;;6.40;4.60;;;27.60;99.90;;;;;;5057530;28;20076;-58
2023/06/20 11:05:50;;;;;;;7.18;4.60;;;27.50;99.90;;;;;;5056375;28;20044;-58
2023/06/20 11:08:25;;;;;;;6.40;4.00;;;27.60;99.90;;;;;;5057259;28;20468;-59
2023/06/20 11:10:50;;;;;;;6.70;3.83;;;27.70;99.90;;;;;;5058826;28;20040;-60
2023/06/20 11:13:16;;;;;;;7.95;4.22;;;28.00;99.90;;;;;;5090053;28;20040;-59
2023/06/20 11:15:42;;;;;;;5.78;3.90;;;28.30;99.90;;;;;;5059025;28;20036;-60
2023/06/20 11:18:09;;;;;;;7.05;4.30;;;27.90;99.90;;;;;;5061514;28;20650;-59
2023/06/20 11:20:39;;;;;;;7.32;4.72;;;28.00;99.90;;;;;;5094413;27;20413;-58
2023/06/20 11:23:10;;;;;;;7.68;4.47;;;28.40;99.90;;;;;;5062529;28;20044;-59
2023/06/20 11:25:37;;;;;;;8.95;4.80;;;28.50;99.90;;;;;;5060851;28;20052;-59
2023/06/20 11:28:13;;;;;;;6.43;4.45;;;28.60;99.90;;;;;;5061719;28;20187;-57
2023/06/20 11:30:50;;;;;;;8.13;4.78;;;28.30;99.90;;;;;;5058237;28;20084;-60
2023/06/20 11:33:17;;;;;;;35.65;8.95;;;28.20;99.90;;;;;;5059012;28;21174;-58
2023/06/20 11:35:43;;;;;;;30.17;7.22;;;28.20;99.90;;;;;;5060355;28;20048;-59
2023/06/20 11:38:11;;;;;;;6.88;4.55;;;27.90;99.90;;;;;;5062639;28;20044;-59
2023/06/20 11:40:38;;;;;;;30.35;6.28;;;28.00;99.90;;;;;;5059505;28;20048;-59
2023/06/20 11:43:04;;;;;;;6.25;4.43;;;28.20;99.90;;;;;;5059501;28;20754;-59
2023/06/20 11:45:30;;;;;;;76.43;11.35;;;28.10;99.90;;;;;;5058665;28;20059;-59
2023/06/20 11:48:09;;;;;;;10.82;4.50;;;28.50;99.90;;;;;;5060868;28;20423;-58
2023/06/20 11:50:35;;;;;;;62.35;9.63;;;28.50;99.90;;;;;;5096528;27;20086;-58
2023/06/20 11:53:03;;;;;;;33.42;7.35;;;28.60;99.90;;;;;;5061351;28;20141;-59
2023/06/20 11:55:52;;;;;;;6.07;4.85;;;28.70;99.90;;;;;;5058663;28;20094;-60
2023/06/20 11:58:18;;;;;;;8.93;5.15;;;28.60;99.90;;;;;;5059477;28;20079;-59
2023/06/20 12:00:57;;;;;;;11.07;5.65;;;28.60;99.90;;;;;;5060074;28;20051;-59
2023/06/20 12:03:23;;;;;;;18.48;6.43;;;28.50;99.90;;;;;;5060198;28;20041;-58
2023/06/20 12:05:49;;;;;;;7.95;5.35;;;28.20;99.90;;;;;;5061280;28;20040;-59
2023/06/20 12:08:15;;;;;;;5.72;4.72;;;27.70;99.90;;;;;;5059619;28;20048;-59
2023/06/20 12:10:47;;;;;;;7.25;5.03;;;28.10;99.90;;;;;;5094913;27;20040;-59
2023/06/20 12:13:15;;;;;;;8.88;4.78;;;27.90;99.90;;;;;;5060724;28;20060;-58
2023/06/20 12:15:40;;;;;;;8.88;5.43;;;27.90;99.90;;;;;;5060268;28;20109;-59
2023/06/20 12:18:06;;;;;;;7.70;4.78;;;27.70;99.90;;;;;;5059077;28;20044;-59
2023/06/20 12:20:32;;;;;;;17.00;6.25;;;27.80;99.90;;;;;;5058401;28;20258;-59
2023/06/20 12:22:58;;;;;;;8.40;4.53;;;28.00;99.90;;;;;;5060491;28;20053;-58
2023/06/20 12:25:24;;;;;;;8.88;4.43;;;28.00;99.90;;;;;;5059740;28;20066;-59
2023/06/20 12:27:50;;;;;;;6.68;4.10;;;28.20;99.90;;;;;;5056144;28;20127;-60
2023/06/20 12:30:16;;;;;;;6.55;4.72;;;28.20;99.90;;;;;;5058713;28;20197;-59
2023/06/20 12:32:41;;;;;;;6.70;4.43;;;28.30;99.90;;;;;;5059577;28;20947;-59
2023/06/20 12:35:07;;;;;;;6.90;4.35;;;28.30;99.90;;;;;;5060285;28;20048;-59
2023/06/20 12:37:33;;;;;;;5.20;4.13;;;28.10;99.90;;;;;;5058976;28;20043;-58